Canute, Oklahoma
Current Conditions -  °F | °C
As of 12:53 PM on Monday 22 Dec 2014 (Local Time) from KCSM Reporting Station
Clear Clear  
Wind Chill: 57°   Ceiling: Unl
Heat Index: 57°   Visibility: 10mi
Dew Point: 33°   Wind: 22mph
Humidity: 40%   Direction: 340°NNW
Pressure: 29.62"   Gusts: 29mph
Location:  35.42°N, 99.28°W
Report Text: KCSM 221853Z 34019G25KT 10SM CLR 14/01 A2962 RMK AO2 PK WND 34029/1817 SLP024 T01390006
Loading
Personal Weather Stations






























Interactive Weather Map New forecast layout! Learn more

10-Day Weather Forecast

Advertisements
Track Severe Weather on mobile